createdAt,value
2023-02-18T00:01:39.489Z,83.10
2023-02-18T00:04:07.137Z,83.00
2023-02-18T00:06:36.480Z,82.80
2023-02-18T00:09:06.205Z,83.10
2023-02-18T00:11:36.402Z,83.10
2023-02-18T00:14:07.666Z,82.70
2023-02-18T00:16:35.197Z,83.50
2023-02-18T00:19:05.989Z,82.70
2023-02-18T00:21:35.832Z,82.40
2023-02-18T00:24:08.674Z,83.20
2023-02-18T00:26:36.622Z,82.10
2023-02-18T00:29:04.614Z,82.10
2023-02-18T00:31:36.577Z,81.60
2023-02-18T00:34:05.685Z,82.10
2023-02-18T00:36:35.258Z,81.70
2023-02-18T00:39:09.367Z,81.40
2023-02-18T00:41:37.823Z,81.60
2023-02-18T00:44:06.266Z,81.50
2023-02-18T00:46:35.725Z,81.30
2023-02-18T00:49:04.763Z,81.00
2023-02-18T00:51:32.811Z,81.10
2023-02-18T00:54:00.607Z,80.80
2023-02-18T00:56:28.232Z,80.80
2023-02-18T00:58:55.861Z,80.90
2023-02-18T01:01:24.205Z,80.70
2023-02-18T01:03:51.794Z,80.30
2023-02-18T01:06:19.773Z,80.40
2023-02-18T01:08:49.718Z,80.10
2023-02-18T01:11:17.650Z,80.30
2023-02-18T01:13:46.693Z,80.00
2023-02-18T01:16:14.377Z,80.30
2023-02-18T01:18:41.931Z,80.20
2023-02-18T01:21:10.176Z,80.10
2023-02-18T01:23:40.326Z,79.80
2023-02-18T01:26:10.022Z,80.00
2023-02-18T01:28:40.959Z,79.50
2023-02-18T01:31:12.629Z,79.30
2023-02-18T01:33:41.118Z,79.50
2023-02-18T01:36:10.895Z,79.20
2023-02-18T01:38:38.746Z,79.30
2023-02-18T01:41:06.657Z,79.30
2023-02-18T01:43:34.778Z,79.10
2023-02-18T01:46:22.234Z,79.30
2023-02-18T01:48:57.469Z,79.40
2023-02-18T01:51:34.222Z,79.30
2023-02-18T01:54:18.485Z,78.60
2023-02-18T01:57:01.684Z,78.80
2023-02-18T01:59:39.456Z,79.30
2023-02-18T02:02:13.104Z,78.80
2023-02-18T02:04:41.552Z,79.10
2023-02-18T02:07:10.652Z,78.90
2023-02-18T02:09:40.353Z,78.80
2023-02-18T02:12:33.466Z,78.90
2023-02-18T02:15:09.797Z,79.20
2023-02-18T02:18:09.433Z,79.20
2023-02-18T02:21:11.805Z,79.30
2023-02-18T02:24:01.741Z,79.00
2023-02-18T02:27:01.307Z,79.40
2023-02-18T02:29:51.252Z,79.30
2023-02-18T02:32:35.750Z,79.30
2023-02-18T02:35:24.933Z,79.70
2023-02-18T02:38:14.741Z,79.50
2023-02-18T02:40:56.861Z,79.50
2023-02-18T02:44:10.681Z,78.80
2023-02-18T02:46:45.961Z,78.20
2023-02-18T02:49:37.771Z,78.10
2023-02-18T02:52:33.162Z,77.10
2023-02-18T02:55:03.544Z,77.20
2023-02-18T02:57:30.989Z,76.90
2023-02-18T03:00:10.463Z,76.80
2023-02-18T03:03:12.686Z,77.10
2023-02-18T03:06:27.272Z,76.60
2023-02-18T03:09:09.507Z,76.80
2023-02-18T03:11:52.367Z,76.80
2023-02-18T03:14:36.230Z,76.90
2023-02-18T03:17:15.373Z,76.70
2023-02-18T03:19:52.670Z,76.40
2023-02-18T03:22:37.843Z,76.20
2023-02-18T03:25:07.464Z,76.30
2023-02-18T03:27:53.334Z,76.80
2023-02-18T03:30:36.984Z,76.60
2023-02-18T03:33:09.597Z,76.90
2023-02-18T03:35:39.218Z,76.90
2023-02-18T03:38:31.806Z,77.00
2023-02-18T03:40:59.596Z,77.20
2023-02-18T03:43:27.174Z,77.30
2023-02-18T03:45:54.949Z,77.30
2023-02-18T03:48:23.012Z,77.50
2023-02-18T03:50:53.214Z,77.60
2023-02-18T03:53:20.853Z,77.60
2023-02-18T03:55:48.550Z,77.20
2023-02-18T03:58:16.137Z,77.50
2023-02-18T04:00:43.655Z,77.60
2023-02-18T04:03:11.221Z,77.40
2023-02-18T04:05:38.765Z,77.30
2023-02-18T04:08:06.328Z,77.40
2023-02-18T04:10:33.967Z,77.00
2023-02-18T04:13:01.636Z,77.20
2023-02-18T04:15:29.446Z,76.80
2023-02-18T04:17:57.054Z,76.40
2023-02-18T04:20:24.604Z,76.00
2023-02-18T04:22:52.150Z,75.90
2023-02-18T04:25:19.712Z,75.80
2023-02-18T04:27:47.394Z,75.90
2023-02-18T04:30:16.778Z,75.90
2023-02-18T04:32:46.053Z,75.90
2023-02-18T04:35:14.065Z,75.30
2023-02-18T04:37:41.739Z,74.70
2023-02-18T04:40:09.784Z,73.80
2023-02-18T04:42:37.383Z,73.80
2023-02-18T04:45:05.372Z,73.60
2023-02-18T04:47:32.969Z,73.70
2023-02-18T04:50:00.556Z,73.30
2023-02-18T04:52:28.180Z,73.60
2023-02-18T04:54:55.729Z,73.00
2023-02-18T04:57:23.328Z,72.60
2023-02-18T04:59:50.865Z,73.30
2023-02-18T05:02:18.468Z,73.10
2023-02-18T05:04:46.034Z,72.60
2023-02-18T05:07:13.716Z,73.10
2023-02-18T05:09:41.221Z,73.00
2023-02-18T05:12:09.048Z,72.40
2023-02-18T05:14:36.551Z,72.80
2023-02-18T05:17:04.119Z,71.80
2023-02-18T05:19:31.621Z,72.00
2023-02-18T05:21:59.159Z,72.10
2023-02-18T05:24:26.682Z,72.10
2023-02-18T05:26:54.251Z,72.60
2023-02-18T05:29:21.804Z,72.30
2023-02-18T05:31:49.525Z,72.80
2023-02-18T05:34:17.311Z,72.60
2023-02-18T05:36:44.837Z,72.50
2023-02-18T05:39:12.381Z,72.10
2023-02-18T05:41:39.956Z,72.70
2023-02-18T05:44:25.861Z,72.50
2023-02-18T05:46:53.421Z,72.10
2023-02-18T05:49:21.245Z,72.10
2023-02-18T05:51:48.852Z,73.50
2023-02-18T05:54:16.559Z,72.40
2023-02-18T05:56:44.132Z,72.00
2023-02-18T05:59:11.782Z,71.90
2023-02-18T06:01:39.318Z,71.60
2023-02-18T06:04:06.996Z,71.80
2023-02-18T06:06:35.807Z,71.70
2023-02-18T06:09:04.697Z,72.00
2023-02-18T06:11:32.837Z,72.10
2023-02-18T06:14:00.773Z,72.20
2023-02-18T06:16:28.857Z,72.90
2023-02-18T06:18:56.892Z,71.90
2023-02-18T06:21:24.739Z,71.90
2023-02-18T06:23:52.425Z,71.30
2023-02-18T06:26:20.041Z,71.50
2023-02-18T06:28:47.681Z,71.40
2023-02-18T06:31:15.359Z,70.80
2023-02-18T06:33:42.949Z,70.70
2023-02-18T06:36:13.105Z,70.50
2023-02-18T06:38:43.441Z,70.50
2023-02-18T06:41:12.375Z,70.00
2023-02-18T06:43:40.444Z,70.20
2023-02-18T06:46:08.674Z,69.80
2023-02-18T06:48:36.429Z,70.10
2023-02-18T06:51:04.442Z,69.90
2023-02-18T06:53:31.943Z,70.00
2023-02-18T06:55:59.449Z,70.00
2023-02-18T06:58:27.715Z,69.60
2023-02-18T07:00:55.259Z,70.40
2023-02-18T07:03:22.909Z,69.90
2023-02-18T07:05:50.442Z,70.10
2023-02-18T07:08:18.635Z,70.00
2023-02-18T07:10:46.871Z,70.20
2023-02-18T07:13:14.722Z,69.30
2023-02-18T07:15:42.236Z,69.90
2023-02-18T07:18:09.805Z,69.80
2023-02-18T07:20:37.317Z,69.50
2023-02-18T07:23:04.854Z,69.30
2023-02-18T07:25:32.354Z,69.00
2023-02-18T07:27:59.876Z,69.20
2023-02-18T07:30:27.455Z,69.10
2023-02-18T07:32:54.984Z,69.10
2023-02-18T07:35:22.637Z,68.60
2023-02-18T07:37:51.068Z,69.00
2023-02-18T07:40:21.608Z,68.90
2023-02-18T07:42:49.606Z,68.40
2023-02-18T07:45:17.321Z,68.90
2023-02-18T07:47:45.543Z,68.50
2023-02-18T07:50:13.095Z,68.20
2023-02-18T07:52:40.736Z,68.40
2023-02-18T07:55:09.032Z,68.30
2023-02-18T07:57:56.548Z,67.90
2023-02-18T08:00:24.363Z,68.60
2023-02-18T08:02:51.942Z,68.00
2023-02-18T08:05:19.555Z,68.60
2023-02-18T08:07:47.097Z,68.70
2023-02-18T08:10:14.591Z,68.60
2023-02-18T08:12:42.103Z,68.30
2023-02-18T08:15:09.901Z,68.00
2023-02-18T08:17:37.443Z,68.30
2023-02-18T08:20:06.234Z,68.00
2023-02-18T08:22:33.744Z,68.00
2023-02-18T08:25:01.260Z,67.20
2023-02-18T08:27:28.806Z,67.80
2023-02-18T08:29:56.322Z,67.60
2023-02-18T08:32:28.710Z,67.10
2023-02-18T08:34:56.832Z,67.50
2023-02-18T08:37:24.518Z,67.50
2023-02-18T08:39:52.264Z,67.50
2023-02-18T08:42:19.793Z,67.30
2023-02-18T08:44:47.405Z,67.10
2023-02-18T08:48:18.330Z,67.00
2023-02-18T08:50:02.456Z,66.20
2023-02-18T08:52:30.028Z,66.80
2023-02-18T08:54:57.597Z,67.00
2023-02-18T08:57:25.118Z,66.70
2023-02-18T08:59:52.662Z,66.80
2023-02-18T09:02:20.248Z,66.70
2023-02-18T09:04:47.788Z,66.90
2023-02-18T09:07:15.289Z,66.20
2023-02-18T09:09:42.814Z,66.90
2023-02-18T09:12:10.382Z,66.80
2023-02-18T09:14:37.911Z,66.80
2023-02-18T09:17:05.442Z,66.40
2023-02-18T09:19:32.941Z,66.50
2023-02-18T09:22:00.848Z,66.90
2023-02-18T09:24:28.500Z,66.80
2023-02-18T09:26:56.033Z,66.90
2023-02-18T09:29:23.579Z,66.50
2023-02-18T09:31:51.207Z,66.60
2023-02-18T09:34:18.830Z,66.20
2023-02-18T09:36:46.336Z,66.60
2023-02-18T09:39:13.948Z,66.70
2023-02-18T09:41:51.405Z,65.70
2023-02-18T09:44:21.789Z,66.20
2023-02-18T09:47:05.330Z,66.20
2023-02-18T09:49:38.144Z,66.00
2023-02-18T09:52:33.341Z,66.00
2023-02-18T09:55:21.354Z,64.80
2023-02-18T09:58:00.958Z,65.40
2023-02-18T10:00:46.137Z,65.40
2023-02-18T10:03:21.657Z,65.20
2023-02-18T10:06:10.518Z,65.80
2023-02-18T10:08:42.712Z,65.20
2023-02-18T10:11:36.744Z,64.60
2023-02-18T10:14:10.924Z,64.50
2023-02-18T10:16:38.504Z,64.40
2023-02-18T10:19:37.492Z,64.40
2023-02-18T10:22:08.685Z,64.10
2023-02-18T10:24:52.275Z,65.20
2023-02-18T10:27:37.129Z,65.50
2023-02-18T10:30:34.402Z,64.80
2023-02-18T10:33:33.391Z,64.90
2023-02-18T10:36:24.615Z,65.00
2023-02-18T10:39:38.552Z,65.10
2023-02-18T10:42:38.937Z,65.10
2023-02-18T10:45:40.162Z,65.40
2023-02-18T10:48:50.656Z,65.90
2023-02-18T10:51:24.415Z,65.30
2023-02-18T10:53:53.490Z,64.90
2023-02-18T10:56:42.087Z,65.60
2023-02-18T10:59:33.432Z,64.80
2023-02-18T11:02:18.424Z,65.30
2023-02-18T11:04:46.631Z,64.20
2023-02-18T11:07:23.171Z,65.20
2023-02-18T11:09:56.007Z,64.60
2023-02-18T11:12:28.958Z,64.40
2023-02-18T11:15:14.515Z,63.80
2023-02-18T11:17:45.351Z,64.10
2023-02-18T11:20:36.352Z,64.20
2023-02-18T11:23:06.730Z,63.60
2023-02-18T11:25:40.611Z,64.30
2023-02-18T11:28:44.140Z,64.40
2023-02-18T11:31:31.164Z,64.40
2023-02-18T11:34:03.037Z,65.20
2023-02-18T11:36:35.046Z,64.80
2023-02-18T11:39:26.444Z,64.10
2023-02-18T11:42:14.029Z,63.00
2023-02-18T11:44:56.433Z,63.90
2023-02-18T11:47:27.995Z,63.60
2023-02-18T11:50:20.760Z,63.30
2023-02-18T11:52:51.049Z,63.50
2023-02-18T11:55:23.018Z,64.40
2023-02-18T11:58:03.796Z,64.90
2023-02-18T12:00:51.724Z,64.50
2023-02-18T12:03:49.936Z,64.60
2023-02-18T12:06:44.468Z,64.60
2023-02-18T12:09:35.084Z,64.30
2023-02-18T12:12:33.397Z,64.60
2023-02-18T12:15:01.192Z,64.50
2023-02-18T12:18:01.656Z,65.30
2023-02-18T12:20:59.431Z,64.80
2023-02-18T12:24:04.234Z,64.00
2023-02-18T12:27:04.830Z,64.10
2023-02-18T12:29:54.430Z,65.30
2023-02-18T12:32:53.899Z,65.20
2023-02-18T12:36:00.098Z,65.00
2023-02-18T12:39:01.481Z,65.10
2023-02-18T12:42:05.983Z,65.10
2023-02-18T12:45:14.934Z,66.00
2023-02-18T12:48:19.952Z,66.80
2023-02-18T12:51:56.382Z,66.50
2023-02-18T12:54:49.054Z,65.70
2023-02-18T12:57:48.011Z,66.20
2023-02-18T13:00:31.129Z,65.70
2023-02-18T13:03:50.883Z,66.60
2023-02-18T13:06:48.796Z,66.30
2023-02-18T13:09:43.025Z,65.80
2023-02-18T13:12:38.813Z,66.20
2023-02-18T13:15:37.026Z,65.80
2023-02-18T13:18:14.730Z,65.80
2023-02-18T13:21:00.921Z,65.80
2023-02-18T13:23:35.701Z,66.10
2023-02-18T13:26:09.728Z,66.60
2023-02-18T13:29:00.737Z,66.70
2023-02-18T13:32:00.653Z,66.10
2023-02-18T13:34:46.118Z,65.80
2023-02-18T13:37:27.349Z,66.90
2023-02-18T13:39:58.114Z,66.80
2023-02-18T13:42:31.615Z,66.80
2023-02-18T13:44:59.092Z,66.60
2023-02-18T13:47:45.913Z,66.50
2023-02-18T13:50:26.481Z,66.70
2023-02-18T13:53:09.276Z,67.00
2023-02-18T13:56:05.485Z,66.70
2023-02-18T13:58:42.758Z,66.20
2023-02-18T14:01:13.143Z,66.50
2023-02-18T14:03:43.354Z,66.60
2023-02-18T14:06:28.682Z,65.80
2023-02-18T14:09:25.036Z,65.40
2023-02-18T14:12:26.529Z,65.80
2023-02-18T14:14:54.074Z,66.80
2023-02-18T14:17:21.466Z,67.50
2023-02-18T14:20:00.901Z,69.20
2023-02-18T14:22:39.442Z,69.80
2023-02-18T14:25:09.815Z,69.80
2023-02-18T14:27:38.911Z,69.20
2023-02-18T14:30:24.527Z,68.70
2023-02-18T14:32:57.199Z,67.10
2023-02-18T14:36:15.024Z,68.20
2023-02-18T14:39:35.972Z,67.80
2023-02-18T14:42:30.133Z,67.30
2023-02-18T14:45:31.121Z,67.60
2023-02-18T14:48:47.568Z,67.60
2023-02-18T14:51:19.789Z,66.70
2023-02-18T14:53:48.444Z,67.00
2023-02-18T14:56:21.045Z,67.20
2023-02-18T14:59:02.351Z,67.00
2023-02-18T15:01:31.340Z,67.60
2023-02-18T15:04:00.317Z,67.50
2023-02-18T15:06:38.305Z,67.70
2023-02-18T15:09:22.421Z,67.80
2023-02-18T15:11:57.780Z,67.50
2023-02-18T15:14:30.666Z,67.80
2023-02-18T15:16:59.491Z,68.00
2023-02-18T15:19:36.333Z,68.30
2023-02-18T15:22:03.886Z,68.30
2023-02-18T15:24:37.956Z,68.50
2023-02-18T15:27:24.807Z,68.60
2023-02-18T15:30:12.870Z,68.20
2023-02-18T15:32:40.594Z,68.10
2023-02-18T15:35:18.371Z,67.90
2023-02-18T15:37:52.741Z,67.70
2023-02-18T15:40:23.487Z,68.00
2023-02-18T15:42:56.072Z,67.70
2023-02-18T15:45:46.936Z,67.90
2023-02-18T15:48:48.416Z,67.60
2023-02-18T15:51:23.319Z,67.60
2023-02-18T15:53:54.952Z,68.10
2023-02-18T15:56:38.522Z,69.40
2023-02-18T15:59:35.644Z,68.50
2023-02-18T16:02:18.595Z,68.50
2023-02-18T16:04:57.771Z,68.60
2023-02-18T16:07:30.609Z,69.10
2023-02-18T16:10:20.394Z,68.70
2023-02-18T16:12:54.781Z,68.90
2023-02-18T16:15:28.681Z,68.90
2023-02-18T16:17:58.834Z,68.80
2023-02-18T16:20:37.921Z,68.70
2023-02-18T16:23:14.778Z,68.60
2023-02-18T16:25:47.005Z,68.40
2023-02-18T16:28:27.762Z,68.60
2023-02-18T16:30:55.417Z,68.90
2023-02-18T16:33:22.938Z,69.50
2023-02-18T16:35:51.159Z,69.10
2023-02-18T16:38:22.485Z,69.30
2023-02-18T16:40:52.186Z,69.40
2023-02-18T16:43:26.932Z,69.80
2023-02-18T16:45:58.855Z,69.70
2023-02-18T16:48:41.419Z,70.20
2023-02-18T16:51:34.490Z,70.20
2023-02-18T16:54:02.031Z,70.30
2023-02-18T16:56:35.328Z,71.10
2023-02-18T16:59:03.005Z,71.30
2023-02-18T17:01:42.576Z,71.30
2023-02-18T17:04:17.167Z,71.60
2023-02-18T17:06:48.441Z,71.80
2023-02-18T17:09:20.570Z,71.80
2023-02-18T17:11:54.664Z,72.20
2023-02-18T17:14:23.462Z,72.30
2023-02-18T17:16:54.269Z,72.70
2023-02-18T17:19:21.862Z,73.10
2023-02-18T17:21:49.430Z,73.70
2023-02-18T17:24:18.662Z,73.80
2023-02-18T17:26:46.294Z,74.20
2023-02-18T17:29:13.903Z,73.80
2023-02-18T17:31:46.863Z,74.10
2023-02-18T17:34:24.522Z,74.10
2023-02-18T17:36:52.178Z,73.90
2023-02-18T17:39:20.724Z,74.10
2023-02-18T17:41:48.401Z,74.00
2023-02-18T17:44:22.019Z,74.30
2023-02-18T17:46:50.017Z,74.50
2023-02-18T17:49:17.617Z,74.40
2023-02-18T17:51:45.145Z,74.50
2023-02-18T17:54:16.298Z,74.40
2023-02-18T17:56:44.727Z,74.00
2023-02-18T17:59:12.631Z,74.30
2023-02-18T18:01:40.379Z,75.00
2023-02-18T18:04:19.244Z,75.00
2023-02-18T18:06:47.298Z,75.00
2023-02-18T18:09:14.817Z,75.30
2023-02-18T18:11:42.701Z,75.40
2023-02-18T18:14:13.514Z,75.80
2023-02-18T18:16:41.055Z,76.20
2023-02-18T18:19:08.550Z,76.30
2023-02-18T18:21:36.723Z,76.30
2023-02-18T18:24:04.575Z,77.00
2023-02-18T18:26:32.199Z,77.40
2023-02-18T18:28:59.733Z,77.70
2023-02-18T18:31:27.445Z,77.70
2023-02-18T18:33:55.102Z,78.20
2023-02-18T18:36:24.269Z,78.50
2023-02-18T18:38:52.422Z,78.70
2023-02-18T18:41:22.485Z,78.50
2023-02-18T18:43:50.182Z,78.40
2023-02-18T18:46:18.507Z,78.10
2023-02-18T18:48:46.382Z,78.30
2023-02-18T18:51:21.441Z,78.40
2023-02-18T18:53:48.979Z,78.50
2023-02-18T18:56:16.508Z,78.50
2023-02-18T18:58:44.030Z,78.80
2023-02-18T19:01:18.737Z,79.60
2023-02-18T19:03:47.041Z,80.10
2023-02-18T19:06:16.738Z,79.70
2023-02-18T19:08:45.539Z,79.90
2023-02-18T19:11:14.203Z,80.50
2023-02-18T19:13:42.476Z,81.90
2023-02-18T19:16:20.099Z,83.60
2023-02-18T19:18:48.914Z,85.80
2023-02-18T19:21:16.912Z,88.50
2023-02-18T19:23:44.503Z,90.30
2023-02-18T19:26:14.493Z,93.20
2023-02-18T19:28:43.061Z,99.20
2023-02-18T19:31:11.302Z,99.90
2023-02-18T19:33:39.689Z,99.90
2023-02-18T19:36:09.547Z,99.90
2023-02-18T19:38:37.637Z,99.90
2023-02-18T19:41:12.798Z,99.90
2023-02-18T19:43:44.637Z,99.90
2023-02-18T19:46:18.178Z,99.90
2023-02-18T19:48:52.599Z,99.90
2023-02-18T19:51:21.575Z,99.90
2023-02-18T19:53:49.283Z,99.90
2023-02-18T19:56:16.890Z,99.90
2023-02-18T19:58:44.423Z,99.90
2023-02-18T20:01:14.998Z,99.90
2023-02-18T20:03:43.603Z,99.90
2023-02-18T20:06:19.429Z,99.90
2023-02-18T20:08:47.668Z,99.90
2023-02-18T20:11:15.408Z,99.90
2023-02-18T20:13:43.081Z,99.90
2023-02-18T20:16:11.624Z,99.90
2023-02-18T20:18:39.422Z,99.90
2023-02-18T20:21:10.719Z,99.90
2023-02-18T20:23:38.461Z,99.90
2023-02-18T20:26:11.067Z,99.90
2023-02-18T20:28:38.887Z,99.90
2023-02-18T20:31:09.731Z,99.90
2023-02-18T20:33:38.276Z,99.90
2023-02-18T20:36:08.345Z,99.90
2023-02-18T20:38:37.340Z,99.90
2023-02-18T20:41:11.893Z,99.90
2023-02-18T20:43:40.456Z,99.90
2023-02-18T20:46:12.545Z,99.90
2023-02-18T20:48:40.143Z,99.90
2023-02-18T20:51:13.810Z,99.90
2023-02-18T20:53:43.010Z,99.90
2023-02-18T20:56:10.875Z,99.90
2023-02-18T20:58:39.028Z,99.90
2023-02-18T21:01:13.926Z,99.90
2023-02-18T21:03:42.649Z,99.90
2023-02-18T21:06:13.904Z,99.90
2023-02-18T21:08:43.400Z,99.90
2023-02-18T21:11:24.889Z,99.90
2023-02-18T21:13:55.144Z,99.90
2023-02-18T21:16:25.178Z,99.90
2023-02-18T21:18:53.045Z,99.90
2023-02-18T21:21:22.828Z,99.90
2023-02-18T21:24:31.974Z,99.90
2023-02-18T21:26:59.533Z,99.90
2023-02-18T21:29:27.269Z,99.90
2023-02-18T21:31:54.964Z,99.90
2023-02-18T21:34:22.788Z,99.90
2023-02-18T21:36:50.360Z,99.90
2023-02-18T21:39:17.868Z,99.90
2023-02-18T21:41:45.385Z,99.90
2023-02-18T21:44:12.916Z,99.90
2023-02-18T21:46:40.542Z,99.90
2023-02-18T21:49:12.284Z,99.90
2023-02-18T21:51:57.937Z,99.90
2023-02-18T21:54:40.884Z,99.90
2023-02-18T21:57:15.367Z,99.90
2023-02-18T21:59:43.550Z,99.90
2023-02-18T22:02:31.553Z,99.90
2023-02-18T22:05:02.174Z,99.90
2023-02-18T22:07:30.059Z,99.90
2023-02-18T22:09:57.631Z,99.90
2023-02-18T22:12:28.265Z,99.90
2023-02-18T22:14:55.817Z,99.90
2023-02-18T22:17:23.326Z,99.90
2023-02-18T22:19:50.843Z,99.90
2023-02-18T22:22:18.412Z,99.90
2023-02-18T22:24:45.917Z,99.90
2023-02-18T22:27:13.417Z,99.90
2023-02-18T22:29:41.109Z,99.90
2023-02-18T22:32:08.707Z,99.90
2023-02-18T22:34:36.361Z,99.90
2023-02-18T22:37:03.943Z,99.90
2023-02-18T22:39:31.817Z,99.90
2023-02-18T22:41:59.356Z,99.90
2023-02-18T22:44:27.336Z,99.90
2023-02-18T22:46:57.017Z,99.90
2023-02-18T22:49:25.424Z,99.90
2023-02-18T22:51:54.318Z,99.90
2023-02-18T22:54:21.875Z,99.90
2023-02-18T22:56:49.713Z,99.90
2023-02-18T22:59:19.969Z,99.90
2023-02-18T23:01:49.496Z,99.90
2023-02-18T23:04:19.706Z,99.90
2023-02-18T23:06:48.709Z,99.90
2023-02-18T23:09:23.688Z,99.90
2023-02-18T23:11:58.086Z,99.90
2023-02-18T23:14:28.038Z,99.90
2023-02-18T23:17:14.188Z,99.90
2023-02-18T23:19:51.142Z,99.90
2023-02-18T23:22:39.986Z,99.90
2023-02-18T23:25:08.163Z,99.90
2023-02-18T23:27:35.700Z,99.90
2023-02-18T23:30:03.550Z,99.90
2023-02-18T23:32:31.969Z,99.90
2023-02-18T23:34:59.485Z,99.90
2023-02-18T23:37:45.314Z,99.90
2023-02-18T23:40:14.644Z,99.90
2023-02-18T23:42:42.157Z,99.90
2023-02-18T23:45:09.744Z,99.90
2023-02-18T23:47:37.294Z,99.90
2023-02-18T23:50:05.266Z,99.90
2023-02-18T23:52:33.877Z,99.90
2023-02-18T23:55:01.619Z,99.90
2023-02-18T23:57:32.839Z,99.90
